Time;durP1;ratioP1;P1;durP2;ratioP2;P2;SDS_P1;SDS_P2;PMS_P1;PMS_P2;Temp;Humidity;BMP_temperature;BMP_pressure;BME280_temperature;BME280_humidity;BME280_pressure;Samples;Min_cycle;Max_cycle;Signal;HPM_P1;HPM_P2
2023/06/29 00:00:26;;;;;;;15.85;10.35;;;;;;;17.93;100.00;101508.56;1056231;28;20042;-45
2023/06/29 00:00:59;;;;;;;15.82;10.50;;;;;;;17.93;100.00;101513.97;1056656;28;20043;-47
2023/06/29 00:01:30;;;;;;;13.23;10.68;;;;;;;17.91;100.00;101516.91;1056476;27;20116;-45
2023/06/29 00:02:02;;;;;;;13.48;10.60;;;;;;;17.86;100.00;101505.25;1056361;28;20027;-46
2023/06/29 00:02:34;;;;;;;11.95;10.30;;;;;;;17.79;100.00;101516.19;1056717;28;20040;-46
2023/06/29 00:03:06;;;;;;;15.60;9.85;;;;;;;17.74;100.00;101507.22;1056411;28;20044;-44
2023/06/29 00:03:41;;;;;;;14.52;10.18;;;;;;;17.73;100.00;101510.97;1056095;28;20058;-45
2023/06/29 00:04:21;;;;;;;17.63;11.35;;;;;;;17.69;100.00;101509.84;1056541;28;20043;-45
2023/06/29 00:04:56;;;;;;;15.95;10.57;;;;;;;17.79;100.00;101515.38;1055813;28;20082;-50
2023/06/29 00:05:28;;;;;;;12.95;10.20;;;;;;;17.84;100.00;101512.78;1056535;28;20042;-45
2023/06/29 00:06:01;;;;;;;15.23;11.38;;;;;;;17.89;100.00;101510.13;1056815;28;20122;-45
2023/06/29 00:06:36;;;;;;;14.23;10.30;;;;;;;17.86;100.00;101511.47;1056266;28;20050;-45
2023/06/29 00:07:08;;;;;;;13.52;10.60;;;;;;;17.93;100.00;101513.97;1056488;28;20039;-45
2023/06/29 00:07:40;;;;;;;12.70;10.95;;;;;;;17.96;100.00;101516.16;1056660;27;20092;-45
2023/06/29 00:08:12;;;;;;;13.27;10.30;;;;;;;18.02;100.00;101509.78;1053883;28;20036;-45
2023/06/29 00:08:43;;;;;;;15.85;11.20;;;;;;;17.83;100.00;101516.53;1056545;28;20437;-48
2023/06/29 00:09:16;;;;;;;16.77;11.73;;;;;;;17.89;100.00;101510.13;1056590;28;20055;-47
2023/06/29 00:09:48;;;;;;;11.80;10.60;;;;;;;17.86;100.00;101505.25;1056512;28;20035;-45
2023/06/29 00:10:20;;;;;;;16.58;11.23;;;;;;;17.77;100.00;101507.53;1056138;28;20118;-47
2023/06/29 00:10:52;;;;;;;14.35;11.45;;;;;;;17.85;100.00;101509.00;1056474;28;20044;-45
2023/06/29 00:11:24;;;;;;;16.40;11.23;;;;;;;17.83;100.00;101511.13;1056113;28;20047;-45
2023/06/29 00:11:55;;;;;;;14.18;10.15;;;;;;;17.86;100.00;101516.84;1055891;28;20051;-45
2023/06/29 00:12:27;;;;;;;14.48;11.38;;;;;;;18.02;100.00;101509.78;1056265;28;20541;-45
2023/06/29 00:12:59;;;;;;;18.88;12.77;;;;;;;17.89;100.00;101510.13;1056267;28;20042;-45
2023/06/29 00:13:31;;;;;;;16.67;11.38;;;;;;;18.06;100.00;101505.50;1056297;28;20062;-44
2023/06/29 00:14:02;;;;;;;14.80;11.25;;;;;;;18.18;100.00;101508.09;1056761;28;20035;-45
2023/06/29 00:14:34;;;;;;;12.75;11.00;;;;;;;18.26;100.00;101509.53;1056502;28;20047;-46
2023/06/29 00:15:06;;;;;;;14.27;11.98;;;;;;;18.06;100.00;101510.91;1056569;28;20036;-45
2023/06/29 00:15:38;;;;;;;16.13;11.98;;;;;;;18.07;100.00;101512.53;1056477;28;20517;-45
2023/06/29 00:16:10;;;;;;;15.93;12.10;;;;;;;18.01;100.00;101502.75;1056482;28;20039;-45
2023/06/29 00:16:41;;;;;;;15.77;12.45;;;;;;;17.96;100.00;101507.25;1055960;28;20169;-49
2023/06/29 00:17:15;;;;;;;12.85;11.18;;;;;;;17.98;100.00;101511.34;1056284;28;20048;-48
2023/06/29 00:17:47;;;;;;;16.02;11.68;;;;;;;17.99;100.00;101510.28;1056511;28;20552;-47
2023/06/29 00:18:19;;;;;;;12.15;10.68;;;;;;;17.97;100.00;101508.88;1056384;27;20366;-48
2023/06/29 00:18:54;;;;;;;17.00;11.70;;;;;;;17.98;100.00;101514.03;1056196;28;20047;-46
2023/06/29 00:19:25;;;;;;;16.08;11.45;;;;;;;17.87;100.00;101501.50;1056229;27;20045;-46
2023/06/29 00:19:58;;;;;;;14.57;10.40;;;;;;;17.96;100.00;101505.38;1056433;28;20062;-46
2023/06/29 00:20:29;;;;;;;22.00;12.90;;;;;;;17.98;100.00;101513.22;1055904;28;20401;-47
2023/06/29 00:21:03;;;;;;;13.75;12.25;;;;;;;18.02;100.00;101509.78;1055963;28;20105;-46
2023/06/29 00:21:35;;;;;;;13.27;11.13;;;;;;;18.01;100.00;101513.53;1056261;28;20035;-45
2023/06/29 00:22:08;;;;;;;17.02;11.05;;;;;;;18.01;100.00;101508.13;1056388;28;20035;-49
2023/06/29 00:22:40;;;;;;;18.95;11.02;;;;;;;17.98;100.00;101508.63;1056319;28;20142;-46
2023/06/29 00:23:12;;;;;;;20.60;12.10;;;;;;;17.88;100.00;101511.22;1056404;28;20067;-45
2023/06/29 00:23:45;;;;;;;14.95;11.88;;;;;;;17.79;100.00;101509.97;1056562;28;20035;-45
2023/06/29 00:24:17;;;;;;;15.32;11.35;;;;;;;17.87;100.00;101501.50;1056625;28;20039;-45
2023/06/29 00:24:55;;;;;;;16.10;11.32;;;;;;;17.87;100.00;101506.88;1056406;28;20490;-46
2023/06/29 00:25:27;;;;;;;15.30;11.50;;;;;;;17.90;100.00;101506.38;1056070;28;20049;-46
2023/06/29 00:25:59;;;;;;;17.73;11.15;;;;;;;17.90;100.00;101507.19;1056109;28;20070;-45
2023/06/29 00:26:30;;;;;;;15.63;11.90;;;;;;;17.88;100.00;101503.13;1056618;28;20123;-45
2023/06/29 00:27:03;;;;;;;13.63;11.40;;;;;;;17.91;100.00;101506.13;1056230;28;20545;-49
2023/06/29 00:27:35;;;;;;;18.85;12.30;;;;;;;17.90;100.00;101506.38;1056297;28;20123;-46
2023/06/29 00:28:07;;;;;;;20.33;12.07;;;;;;;17.86;100.00;101505.25;1056602;28;20043;-45
2023/06/29 00:28:39;;;;;;;14.85;11.38;;;;;;;17.80;100.00;101498.13;1056103;28;20036;-45
2023/06/29 00:29:11;;;;;;;12.73;10.23;;;;;;;17.86;100.00;101499.88;1056365;28;20043;-48
2023/06/29 00:29:43;;;;;;;15.43;12.18;;;;;;;17.87;100.00;101504.19;1055865;28;20118;-46
2023/06/29 00:30:15;;;;;;;13.98;11.02;;;;;;;17.95;100.00;101508.31;1053590;28;20401;-46
2023/06/29 00:30:47;;;;;;;17.65;12.18;;;;;;;18.00;100.00;101506.50;1056379;28;20043;-45
2023/06/29 00:31:22;;;;;;;15.43;11.75;;;;;;;18.00;100.00;101500.31;1056416;28;20181;-45
2023/06/29 00:31:55;;;;;;;15.00;11.82;;;;;;;17.84;100.00;101496.59;1055960;28;20039;-46
2023/06/29 00:32:26;;;;;;;12.30;10.25;;;;;;;17.88;100.00;101498.53;1056081;28;20454;-50
2023/06/29 00:32:58;;;;;;;17.45;11.57;;;;;;;17.81;100.00;101497.91;1056150;28;20044;-46
2023/06/29 00:33:30;;;;;;;14.98;11.23;;;;;;;17.84;100.00;101497.41;1056468;28;20051;-44
2023/06/29 00:34:01;;;;;;;14.00;11.70;;;;;;;17.80;100.00;101492.75;1056706;28;20043;-47
2023/06/29 00:34:35;;;;;;;15.68;11.88;;;;;;;17.80;100.00;101498.13;1055834;28;20039;-48
2023/06/29 00:35:07;;;;;;;14.98;12.15;;;;;;;17.88;100.00;101497.72;1055849;28;20052;-44
2023/06/29 00:35:38;;;;;;;14.35;12.10;;;;;;;17.77;100.00;101495.94;1056287;28;20528;-45
2023/06/29 00:36:10;;;;;;;19.77;11.77;;;;;;;17.76;100.00;101499.69;1055929;28;20043;-45
2023/06/29 00:36:42;;;;;;;12.38;10.93;;;;;;;17.75;100.00;101495.38;1055774;28;20044;-45
2023/06/29 00:37:13;;;;;;;14.45;11.15;;;;;;;17.81;100.00;101497.09;1056436;28;20114;-45
2023/06/29 00:37:45;;;;;;;15.73;11.20;;;;;;;17.80;100.00;101498.13;1055773;28;20111;-45
2023/06/29 00:38:16;;;;;;;15.25;11.05;;;;;;;17.87;100.00;101493.41;1056235;28;20523;-45
2023/06/29 00:38:48;;;;;;;16.88;10.80;;;;;;;17.93;100.00;101500.50;1056174;28;20047;-46
2023/06/29 00:39:20;;;;;;;15.88;11.23;;;;;;;17.92;100.00;101494.28;1051634;28;20043;-46
2023/06/29 00:39:52;;;;;;;13.95;11.73;;;;;;;17.93;100.00;101484.31;1051827;28;20526;-44
2023/06/29 00:40:24;;;;;;;17.58;12.52;;;;;;;17.94;100.00;101499.44;1052028;28;20058;-45
2023/06/29 00:40:56;;;;;;;14.82;10.70;;;;;;;17.94;100.00;101499.44;1048186;28;20041;-45
2023/06/29 00:41:28;;;;;;;14.70;12.23;;;;;;;17.83;100.00;101489.59;1051701;28;20050;-46
2023/06/29 00:42:02;;;;;;;16.42;11.73;;;;;;;17.76;100.00;101489.72;1052522;28;20063;-44
2023/06/29 00:42:34;;;;;;;14.07;11.45;;;;;;;17.83;100.00;101489.59;1055945;28;20039;-47
2023/06/29 00:43:08;;;;;;;15.13;11.27;;;;;;;17.88;100.00;101495.03;1056114;28;20063;-45
2023/06/29 00:43:44;;;;;;;13.77;11.52;;;;;;;17.90;100.00;101495.59;1055709;28;20112;-45
2023/06/29 00:44:15;;;;;;;17.55;11.68;;;;;;;17.91;100.00;101491.84;1056273;28;20126;-45
2023/06/29 00:44:48;;;;;;;16.80;11.70;;;;;;;17.94;100.00;101491.34;1056099;28;20048;-45
2023/06/29 00:45:19;;;;;;;16.38;11.90;;;;;;;17.92;100.00;101494.28;1051745;28;20076;-46
2023/06/29 00:45:51;;;;;;;19.83;13.45;;;;;;;17.95;100.00;101490.28;1049779;28;20049;-46
2023/06/29 00:46:24;;;;;;;17.10;12.85;;;;;;;17.95;100.00;101492.97;1051794;28;20519;-45
2023/06/29 00:46:55;;;;;;;16.63;12.27;;;;;;;17.99;100.00;101486.00;1053192;28;20044;-45
2023/06/29 00:47:28;;;;;;;17.95;11.45;;;;;;;18.03;100.00;101483.63;1060324;28;20050;-47
2023/06/29 00:48:00;;;;;;;16.27;11.80;;;;;;;18.08;100.00;101483.69;1056230;28;20397;-45
2023/06/29 00:48:32;;;;;;;13.05;10.55;;;;;;;18.06;100.00;101483.94;1055917;28;20100;-46
2023/06/29 00:49:03;;;;;;;15.43;11.98;;;;;;;18.02;100.00;101482.81;1056112;28;20038;-45
2023/06/29 00:49:35;;;;;;;14.73;12.55;;;;;;;18.05;100.00;101482.31;1052320;28;20040;-45
2023/06/29 00:50:07;;;;;;;14.77;10.30;;;;;;;18.06;100.00;101481.25;1052312;28;20040;-44
2023/06/29 00:50:39;;;;;;;20.83;13.43;;;;;;;18.08;100.00;101484.53;1056241;28;20035;-44
2023/06/29 00:51:11;;;;;;;16.67;11.57;;;;;;;18.05;100.00;101487.69;1052807;28;20110;-40
2023/06/29 00:51:52;;;;;;;21.02;11.88;;;;;;;17.94;100.00;101483.25;1057670;28;20427;-39
2023/06/29 00:52:24;;;;;;;15.95;11.88;;;;;;;17.98;100.00;101480.88;1059597;28;20088;-39
2023/06/29 00:52:56;;;;;;;16.65;12.85;;;;;;;17.89;100.00;101480.50;1060358;28;20047;-39
2023/06/29 00:53:27;;;;;;;13.13;11.45;;;;;;;17.84;100.00;101480.44;1056239;28;20043;-39
2023/06/29 00:54:00;;;;;;;18.92;11.73;;;;;;;17.83;100.00;101485.00;1055941;28;20043;-39
2023/06/29 00:54:32;;;;;;;15.82;12.52;;;;;;;17.77;100.00;101479.78;1051722;28;20093;-40
2023/06/29 00:55:04;;;;;;;13.43;10.48;;;;;;;17.87;100.00;101482.63;1049060;28;20203;-39
2023/06/29 00:55:36;;;;;;;14.07;11.68;;;;;;;17.95;100.00;101481.38;1055942;28;20046;-39
2023/06/29 00:56:08;;;;;;;17.00;11.57;;;;;;;17.91;100.00;101481.06;1056003;28;20485;-39
2023/06/29 00:56:41;;;;;;;15.27;12.05;;;;;;;17.82;100.00;101472.59;1056678;28;20077;-39
2023/06/29 00:57:13;;;;;;;16.35;11.88;;;;;;;17.87;100.00;101474.53;1060491;28;20043;-39
2023/06/29 00:57:45;;;;;;;14.30;12.23;;;;;;;17.89;100.00;101480.50;1060374;28;20117;-39
2023/06/29 00:58:16;;;;;;;19.30;11.95;;;;;;;17.88;100.00;101476.97;1055215;28;20063;-39
2023/06/29 00:58:48;;;;;;;14.63;11.90;;;;;;;17.82;100.00;101475.28;1052697;28;20050;-39
2023/06/29 00:59:20;;;;;;;15.27;10.88;;;;;;;17.81;100.00;101475.53;1056062;28;20497;-39
2023/06/29 00:59:51;;;;;;;16.65;11.07;;;;;;;17.76;100.00;101478.13;1056233;28;20122;-39
2023/06/29 01:00:23;;;;;;;15.30;11.35;;;;;;;17.74;100.00;101469.50;1055927;28;20443;-39
2023/06/29 01:00:55;;;;;;;14.75;11.80;;;;;;;17.70;100.00;101468.34;1056267;28;20040;-39
2023/06/29 01:01:27;;;;;;;14.35;11.82;;;;;;;17.67;100.00;101466.97;1056201;28;20036;-39
2023/06/29 01:01:59;;;;;;;19.25;12.13;;;;;;;17.68;100.00;101467.78;1056295;28;20507;-39
2023/06/29 01:02:31;;;;;;;14.25;11.75;;;;;;;17.66;100.00;101472.59;1056408;28;20040;-39
2023/06/29 01:03:03;;;;;;;18.33;12.15;;;;;;;17.72;100.00;101472.44;1056248;28;20040;-39
2023/06/29 01:03:36;;;;;;;16.98;11.80;;;;;;;17.73;100.00;101473.25;1055772;28;20169;-39
2023/06/29 01:04:09;;;;;;;13.60;11.30;;;;;;;17.67;100.00;101463.44;1056176;28;20098;-39
2023/06/29 01:04:45;;;;;;;17.50;11.15;;;;;;;17.71;100.00;101467.28;1051595;28;20043;-39
2023/06/29 01:05:20;;;;;;;19.05;10.88;;;;;;;17.69;100.00;101466.72;1042803;28;20060;-39
2023/06/29 01:05:55;;;;;;;14.93;12.35;;;;;;;17.79;100.00;101466.84;1039339;28;20037;-39
2023/06/29 01:06:29;;;;;;;17.02;12.20;;;;;;;18.02;100.00;101472.03;1045536;28;20052;-39
2023/06/29 01:07:20;;;;;;;17.30;12.45;;;;;;;17.86;100.00;101471.03;1043524;28;21537;-39
2023/06/29 01:08:02;;;;;;;20.63;12.48;;;;;;;17.96;100.00;101473.03;1051137;28;20035;-39
2023/06/29 01:08:43;;;;;;;18.17;12.43;;;;;;;18.05;100.00;101468.00;1052296;28;20036;-39
2023/06/29 01:09:14;;;;;;;15.07;12.85;;;;;;;18.19;100.00;101459.31;1054239;28;20040;-39
2023/06/29 01:09:46;;;;;;;17.42;12.65;;;;;;;18.11;100.00;101464.34;1051600;28;20036;-39
2023/06/29 01:10:23;;;;;;;17.50;12.57;;;;;;;17.97;100.00;101468.47;1053538;28;20538;-39
2023/06/29 01:10:55;;;;;;;18.38;11.77;;;;;;;17.93;100.00;101462.75;1051891;28;20032;-39
2023/06/29 01:11:27;;;;;;;15.23;12.73;;;;;;;17.95;100.00;101466.00;1048971;28;20049;-39
2023/06/29 01:12:02;;;;;;;20.52;12.00;;;;;;;17.95;100.00;101466.00;1047566;28;20044;-39
2023/06/29 01:12:34;;;;;;;21.23;12.60;;;;;;;17.87;100.00;101464.56;1047231;28;20048;-39
2023/06/29 01:13:07;;;;;;;20.63;12.52;;;;;;;17.82;100.00;101461.00;1048817;28;20040;-40
2023/06/29 01:13:41;;;;;;;14.18;12.30;;;;;;;17.89;100.00;101467.00;1053234;28;20445;-40
2023/06/29 01:14:13;;;;;;;14.80;11.18;;;;;;;17.88;100.00;101468.91;1052475;28;20040;-40
2023/06/29 01:14:45;;;;;;;17.98;11.88;;;;;;;17.89;100.00;101462.44;1055435;28;20118;-39
2023/06/29 01:15:18;;;;;;;15.05;11.80;;;;;;;17.86;100.00;101459.44;1056150;28;20043;-40
2023/06/29 01:15:50;;;;;;;16.27;11.73;;;;;;;17.80;100.00;101461.22;1055134;28;20081;-39
2023/06/29 01:16:23;;;;;;;13.50;12.07;;;;;;;17.68;100.00;101468.59;1051711;28;20520;-39
2023/06/29 01:16:56;;;;;;;20.65;12.60;;;;;;;17.76;100.00;101459.28;1051654;28;20425;-39
2023/06/29 01:17:30;;;;;;;20.23;12.35;;;;;;;17.78;100.00;101459.84;1047546;28;20041;-39
2023/06/29 01:18:03;;;;;;;14.55;11.68;;;;;;;17.84;100.00;101469.66;1049225;28;20151;-39
2023/06/29 01:18:35;;;;;;;14.63;11.63;;;;;;;17.82;100.00;101461.00;1052929;28;20036;-39
2023/06/29 01:19:10;;;;;;;18.20;12.45;;;;;;;17.81;100.00;101459.38;1052763;28;20036;-39
2023/06/29 01:19:43;;;;;;;16.35;12.52;;;;;;;17.87;100.00;101464.56;1051720;28;20063;-39
2023/06/29 01:20:15;;;;;;;18.17;11.52;;;;;;;17.86;100.00;101464.81;1051805;28;20548;-39
2023/06/29 01:20:49;;;;;;;16.15;12.82;;;;;;;17.89;100.00;101467.00;1052905;28;20036;-39
2023/06/29 01:21:21;;;;;;;20.23;13.55;;;;;;;17.83;100.00;101458.06;1051708;28;20055;-39
2023/06/29 01:22:02;;;;;;;17.08;12.38;;;;;;;17.91;100.00;101464.88;1048374;28;20059;-39
2023/06/29 01:22:38;;;;;;;14.00;11.15;;;;;;;17.90;100.00;101457.88;1047430;28;20040;-39
2023/06/29 01:23:11;;;;;;;14.93;12.40;;;;;;;17.83;100.00;101462.63;1054737;28;20564;-39
2023/06/29 01:23:44;;;;;;;14.10;11.57;;;;;;;17.81;100.00;101464.75;1051361;28;20036;-39
2023/06/29 01:24:16;;;;;;;18.77;11.73;;;;;;;17.80;100.00;101457.72;1052921;28;20158;-39
2023/06/29 01:24:48;;;;;;;15.07;11.65;;;;;;;17.79;100.00;101458.78;1050437;28;20947;-39
2023/06/29 01:25:20;;;;;;;16.35;11.13;;;;;;;17.79;100.00;101451.50;1048668;28;20070;-39
2023/06/29 01:25:54;;;;;;;16.05;13.48;;;;;;;17.76;100.00;101456.59;1047457;28;20048;-39
2023/06/29 01:26:28;;;;;;;13.05;11.75;;;;;;;17.71;100.00;101459.22;1040362;28;20046;-39
2023/06/29 01:27:03;;;;;;;18.40;12.05;;;;;;;17.81;100.00;101459.38;1044522;28;20514;-39
2023/06/29 01:27:36;;;;;;;15.25;12.07;;;;;;;17.88;100.00;101460.00;1049352;28;20044;-39
2023/06/29 01:28:08;;;;;;;16.02;12.75;;;;;;;17.86;100.00;101457.56;1053230;28;20436;-39
2023/06/29 01:28:40;;;;;;;22.67;12.45;;;;;;;17.80;100.00;101458.53;1055558;28;20247;-39
2023/06/29 01:29:13;;;;;;;14.38;12.73;;;;;;;17.74;100.00;101458.72;1051645;28;20106;-39
2023/06/29 01:29:45;;;;;;;13.15;11.75;;;;;;;17.71;100.00;101454.63;1051624;28;20322;-39
2023/06/29 01:30:17;;;;;;;14.68;12.98;;;;;;;17.67;100.00;101453.50;1052525;28;20039;-39
2023/06/29 01:30:49;;;;;;;14.57;11.00;;;;;;;17.69;100.00;101454.06;1055851;28;20489;-39
2023/06/29 01:31:25;;;;;;;18.10;13.98;;;;;;;17.73;100.00;101457.91;1056469;28;20172;-39
2023/06/29 01:32:00;;;;;;;16.08;12.07;;;;;;;17.68;100.00;101460.53;1056025;28;20502;-39
2023/06/29 01:32:39;;;;;;;16.00;12.90;;;;;;;17.70;100.00;101465.66;1056910;28;20039;-40
2023/06/29 01:33:11;;;;;;;18.92;12.38;;;;;;;17.75;100.00;101463.03;1051803;28;20399;-40
2023/06/29 01:33:43;;;;;;;13.98;11.65;;;;;;;17.79;100.00;101456.91;1057731;27;20035;-39
2023/06/29 01:34:16;;;;;;;15.18;12.15;;;;;;;17.78;100.00;101466.03;1059582;27;20043;-39
2023/06/29 01:34:47;;;;;;;14.73;11.68;;;;;;;17.80;100.00;101457.72;1060978;27;20031;-39
2023/06/29 01:35:19;;;;;;;18.83;11.82;;;;;;;17.79;100.00;101461.47;1062706;27;20047;-39
2023/06/29 01:35:54;;;;;;;14.10;12.25;;;;;;;17.81;100.00;101462.06;1055777;28;20044;-39
2023/06/29 01:36:41;;;;;;;18.02;13.27;;;;;;;17.84;100.00;101465.06;1052084;28;20055;-40
2023/06/29 01:37:22;;;;;;;15.25;11.00;;;;;;;17.90;100.00;101465.94;1051956;28;20413;-39
2023/06/29 01:37:59;;;;;;;14.63;11.65;;;;;;;17.86;100.00;101462.13;1053522;28;20082;-39
2023/06/29 01:38:36;;;;;;;18.30;12.98;;;;;;;17.88;100.00;101458.13;1055910;28;20101;-39
2023/06/29 01:39:13;;;;;;;13.48;12.13;;;;;;;17.90;100.00;101452.47;1055913;28;20069;-39
2023/06/29 01:40:03;;;;;;;15.13;12.98;;;;;;;17.87;100.00;101453.78;1051741;28;20040;-39
2023/06/29 01:40:37;;;;;;;18.88;12.52;;;;;;;17.73;100.00;101449.00;1051546;28;20405;-39
2023/06/29 01:41:11;;;;;;;16.27;12.95;;;;;;;17.68;100.00;101460.53;1047738;28;20036;-39
2023/06/29 01:41:43;;;;;;;13.00;11.00;;;;;;;17.73;100.00;101446.31;1047479;28;20123;-39
2023/06/29 01:42:14;;;;;;;16.30;12.43;;;;;;;17.76;100.00;101451.19;1042716;28;20578;-39
2023/06/29 01:42:47;;;;;;;13.85;11.77;;;;;;;17.82;100.00;101451.03;1045067;28;20071;-39
2023/06/29 01:43:19;;;;;;;15.48;12.35;;;;;;;17.88;100.00;101457.31;1038505;28;20060;-39
2023/06/29 01:43:51;;;;;;;13.77;12.30;;;;;;;17.88;100.00;101449.22;1049167;28;20115;-39
2023/06/29 01:44:23;;;;;;;19.92;14.23;;;;;;;17.77;100.00;101444.75;1048287;28;20060;-39
2023/06/29 01:45:03;;;;;;;21.52;13.02;;;;;;;17.76;100.00;101446.63;1045886;28;20045;-39
2023/06/29 01:45:35;;;;;;;16.00;11.52;;;;;;;17.79;100.00;101450.69;1048319;28;20044;-39
2023/06/29 01:46:06;;;;;;;13.80;12.15;;;;;;;17.83;100.00;101449.97;1045878;28;20177;-39
2023/06/29 01:46:38;;;;;;;16.65;12.27;;;;;;;17.84;100.00;101448.91;1048056;28;20098;-39
2023/06/29 01:47:10;;;;;;;20.42;13.18;;;;;;;17.89;100.00;101446.28;1044352;28;20495;-40
2023/06/29 01:47:42;;;;;;;15.35;11.80;;;;;;;17.84;100.00;101443.50;1044246;28;20068;-39
2023/06/29 01:48:14;;;;;;;18.92;11.38;;;;;;;17.88;100.00;101449.22;1049519;28;20407;-39
2023/06/29 01:48:46;;;;;;;17.60;12.95;;;;;;;17.86;100.00;101452.16;1053303;28;20040;-39
2023/06/29 01:49:18;;;;;;;15.90;12.38;;;;;;;17.85;100.00;101444.34;1056514;28;20047;-39
2023/06/29 01:49:52;;;;;;;18.95;12.00;;;;;;;17.90;100.00;101441.69;1056773;28;20035;-39
2023/06/29 01:50:24;;;;;;;12.88;11.45;;;;;;;17.88;100.00;101446.53;1057310;28;20176;-44
2023/06/29 01:50:56;;;;;;;15.82;11.25;;;;;;;17.77;100.00;101442.03;1054972;28;20047;-39
2023/06/29 01:51:28;;;;;;;13.98;10.32;;;;;;;17.88;100.00;101449.22;1052166;28;20040;-40
2023/06/29 01:52:00;;;;;;;17.58;13.07;;;;;;;17.77;100.00;101444.75;1048403;28;20048;-39
2023/06/29 01:52:32;;;;;;;14.60;11.43;;;;;;;17.80;100.00;101447.75;1048763;28;20068;-39
2023/06/29 01:53:04;;;;;;;16.88;12.95;;;;;;;17.82;100.00;101445.66;1053187;28;20529;-40
2023/06/29 01:53:36;;;;;;;18.50;11.60;;;;;;;17.78;100.00;101440.97;1057689;28;20050;-47
2023/06/29 01:54:08;;;;;;;15.80;11.68;;;;;;;17.80;100.00;101446.94;1056993;28;20035;-39
2023/06/29 01:54:40;;;;;;;19.85;12.70;;;;;;;17.84;100.00;101443.50;1056882;28;20067;-39
2023/06/29 01:55:12;;;;;;;13.50;11.30;;;;;;;17.86;100.00;101448.66;1056937;28;20541;-39
2023/06/29 01:55:43;;;;;;;18.35;12.77;;;;;;;17.79;100.00;101448.00;1056923;27;20035;-39
2023/06/29 01:56:15;;;;;;;18.02;11.40;;;;;;;17.80;100.00;101442.34;1052139;28;20043;-39
2023/06/29 01:56:47;;;;;;;16.52;11.65;;;;;;;17.86;100.00;101440.56;1046776;28;20856;-39
2023/06/29 01:57:19;;;;;;;13.48;11.73;;;;;;;17.82;100.00;101442.13;1052642;28;20117;-39
2023/06/29 01:57:50;;;;;;;14.95;11.93;;;;;;;17.84;100.00;101448.09;1052220;28;20040;-40
2023/06/29 01:58:22;;;;;;;17.20;11.50;;;;;;;17.81;100.00;101448.59;1052821;28;20109;-39
2023/06/29 01:58:54;;;;;;;18.42;11.90;;;;;;;17.82;100.00;101447.53;1056565;28;20040;-39
2023/06/29 01:59:26;;;;;;;15.90;11.93;;;;;;;17.83;100.00;101446.47;1057118;27;20042;-39
2023/06/29 01:59:58;;;;;;;18.25;11.68;;;;;;;17.80;100.00;101446.94;1056976;27;20043;-39
2023/06/29 02:00:29;;;;;;;16.00;12.38;;;;;;;17.77;100.00;101445.56;1060995;27;20108;-39
2023/06/29 02:01:01;;;;;;;14.35;11.48;;;;;;;17.80;100.00;101444.25;1061084;27;20525;-39
2023/06/29 02:01:33;;;;;;;14.65;11.40;;;;;;;17.77;100.00;101442.84;1059164;27;20043;-39
2023/06/29 02:02:05;;;;;;;19.77;12.02;;;;;;;17.80;100.00;101449.63;1056909;28;20036;-39
2023/06/29 02:02:38;;;;;;;12.50;11.02;;;;;;;17.66;100.00;101445.66;1056427;28;20044;-39
2023/06/29 02:03:09;;;;;;;16.10;11.25;;;;;;;17.72;100.00;101445.50;1056580;28;20067;-39
2023/06/29 02:03:43;;;;;;;13.10;11.13;;;;;;;17.72;100.00;101441.97;1056202;28;20040;-40
2023/06/29 02:04:16;;;;;;;14.43;10.80;;;;;;;17.69;100.00;101439.78;1056533;28;20126;-39
2023/06/29 02:04:48;;;;;;;13.82;10.90;;;;;;;17.65;100.00;101447.53;1051984;28;20047;-39
2023/06/29 02:05:20;;;;;;;15.77;11.75;;;;;;;17.72;100.00;101441.97;1052445;28;20494;-39
2023/06/29 02:05:52;;;;;;;14.05;11.55;;;;;;;17.60;100.00;101448.28;1053224;28;20093;-39
2023/06/29 02:06:23;;;;;;;13.02;10.63;;;;;;;17.46;100.00;101441.59;1052658;28;20490;-39
2023/06/29 02:06:55;;;;;;;14.90;10.98;;;;;;;17.58;100.00;101444.19;1051761;28;20640;-39
2023/06/29 02:07:26;;;;;;;13.10;10.52;;;;;;;17.59;100.00;101443.13;1052573;28;20051;-39
2023/06/29 02:07:58;;;;;;;15.82;11.05;;;;;;;17.54;100.00;101449.28;1052386;28;20040;-39
2023/06/29 02:08:30;;;;;;;16.17;11.65;;;;;;;17.55;100.00;101444.69;1052750;28;20036;-39
2023/06/29 02:09:02;;;;;;;13.82;11.30;;;;;;;17.56;100.00;101444.44;1054395;28;20044;-39
2023/06/29 02:09:33;;;;;;;15.25;11.02;;;;;;;17.54;100.00;101440.38;1060419;27;20516;-39
2023/06/29 02:10:05;;;;;;;11.82;10.55;;;;;;;17.48;100.00;101439.47;1061531;27;20031;-39
2023/06/29 02:10:40;;;;;;;14.85;10.82;;;;;;;17.58;100.00;101447.72;1059481;27;20043;-40
2023/06/29 02:11:12;;;;;;;14.25;10.70;;;;;;;17.56;100.00;101444.44;1056130;28;20046;-40
2023/06/29 02:11:44;;;;;;;15.10;11.43;;;;;;;17.58;100.00;101439.63;1056583;28;20039;-39
2023/06/29 02:12:15;;;;;;;13.25;9.95;;;;;;;17.58;100.00;101434.25;1056457;28;20042;-39
2023/06/29 02:12:47;;;;;;;14.07;11.40;;;;;;;17.54;100.00;101441.19;1051725;28;20044;-39
2023/06/29 02:13:19;;;;;;;11.75;10.23;;;;;;;17.45;100.00;101433.75;1052413;28;20143;-39
2023/06/29 02:13:51;;;;;;;14.05;10.50;;;;;;;17.39;100.00;101440.94;1056755;28;20107;-39
2023/06/29 02:14:23;;;;;;;22.00;11.07;;;;;;;17.42;100.00;101440.47;1052113;28;20044;-39
2023/06/29 02:14:54;;;;;;;17.35;10.65;;;;;;;17.45;100.00;101439.16;1048218;28;20048;-39
2023/06/29 02:15:26;;;;;;;15.35;10.85;;;;;;;17.43;100.00;101435.88;1048348;28;20067;-39
2023/06/29 02:15:58;;;;;;;13.27;10.68;;;;;;;17.51;100.00;101438.97;1044355;28;20045;-40
2023/06/29 02:16:30;;;;;;;14.77;11.93;;;;;;;17.53;100.00;101441.41;1048616;28;20123;-39
2023/06/29 02:17:01;;;;;;;13.10;10.43;;;;;;;17.57;100.00;101443.38;1053057;28;20037;-39
2023/06/29 02:17:33;;;;;;;12.23;10.93;;;;;;;17.53;100.00;101438.72;1056733;28;20035;-39
2023/06/29 02:18:05;;;;;;;13.02;10.07;;;;;;;17.39;100.00;101435.56;1056924;28;20052;-38
2023/06/29 02:18:37;;;;;;;12.35;10.82;;;;;;;17.32;100.00;101440.31;1056812;27;20035;-39
2023/06/29 02:19:10;;;;;;;13.18;9.80;;;;;;;17.35;100.00;101434.44;1057001;28;20039;-39
2023/06/29 02:19:42;;;;;;;13.38;10.15;;;;;;;17.43;100.00;101431.31;1056429;28;20520;-39
2023/06/29 02:20:17;;;;;;;14.85;10.57;;;;;;;17.44;100.00;101438.31;1056576;28;20743;-40
2023/06/29 02:20:48;;;;;;;13.02;10.82;;;;;;;17.42;100.00;101437.75;1052197;28;20157;-39
2023/06/29 02:21:20;;;;;;;12.30;10.73;;;;;;;17.46;100.00;101436.19;1053405;28;20044;-39
2023/06/29 02:21:52;;;;;;;13.85;10.55;;;;;;;17.56;100.00;101444.44;1056300;28;20050;-40
2023/06/29 02:22:23;;;;;;;13.80;11.15;;;;;;;17.76;100.00;101437.72;1056567;28;21212;-39
2023/06/29 02:22:55;;;;;;;13.25;11.77;;;;;;;17.57;100.00;101440.69;1057028;28;20489;-39
2023/06/29 02:23:27;;;;;;;16.25;11.60;;;;;;;17.59;100.00;101433.16;1056620;28;20123;-40
2023/06/29 02:23:58;;;;;;;17.80;11.30;;;;;;;17.61;100.00;101439.13;1056987;28;20315;-39
2023/06/29 02:24:32;;;;;;;17.33;11.40;;;;;;;17.69;100.00;101429.00;1057045;28;20044;-39
2023/06/29 02:25:05;;;;;;;13.95;10.57;;;;;;;17.64;100.00;101431.59;1056732;28;20040;-39
2023/06/29 02:25:36;;;;;;;12.45;11.15;;;;;;;17.66;100.00;101430.28;1056864;28;20112;-39
2023/06/29 02:26:08;;;;;;;14.93;11.32;;;;;;;17.59;100.00;101433.16;1056860;28;20038;-39
2023/06/29 02:26:40;;;;;;;12.95;10.40;;;;;;;17.59;100.00;101435.06;1056939;28;20043;-38
2023/06/29 02:27:12;;;;;;;12.70;10.30;;;;;;;17.57;100.00;101432.59;1056887;28;20036;-39
2023/06/29 02:27:47;;;;;;;14.27;10.23;;;;;;;17.60;100.00;101431.28;1056602;28;20043;-39